Bridge of Earn, United Kingdom
Current Conditions -  °F | °C
As of 3:20 PM on Friday 28 Nov 2014 (Local Time) from EGPN Reporting Station
Drizzle Drizzle  
Wind Chill: 50°   Ceiling: 1500
Heat Index: 50°   Visibility: 3mi
Dew Point: 48°   Wind: 9mph
Humidity: 94%   Direction: 100°E
Pressure: 29.83"   Gusts: NA
Location:  56.35°N, 3.41°W
Report Text: EGPN 281520Z 10008KT 5000 -DZ BR SCT006 BKN015 10/09 Q1010
Loading
Personal Weather Stations






























Interactive Weather Map New forecast layout! Learn more

10-Day Weather Forecast

Advertisements
Track Severe Weather on mobile